sensor_id;sensor_type;location;lat;lon;timestamp;P1;durP1;ratioP1;P2;durP2;ratioP2
15096;SDS011;7649;52.084;7.478;2023-05-27T00:01:09;15.80;;;4.77;;
15096;SDS011;7649;52.084;7.478;2023-05-27T00:03:39;14.80;;;4.40;;
15096;SDS011;7649;52.084;7.478;2023-05-27T00:06:09;12.20;;;4.30;;
15096;SDS011;7649;52.084;7.478;2023-05-27T00:08:37;14.87;;;4.63;;
15096;SDS011;7649;52.084;7.478;2023-05-27T00:11:06;14.40;;;4.50;;
15096;SDS011;7649;52.084;7.478;2023-05-27T00:13:34;15.00;;;5.20;;
15096;SDS011;7649;52.084;7.478;2023-05-27T00:16:02;14.83;;;5.07;;
15096;SDS011;7649;52.084;7.478;2023-05-27T00:18:31;9.83;;;4.63;;
15096;SDS011;7649;52.084;7.478;2023-05-27T00:21:00;14.70;;;4.97;;
15096;SDS011;7649;52.084;7.478;2023-05-27T00:23:32;10.63;;;4.67;;
15096;SDS011;7649;52.084;7.478;2023-05-27T00:26:01;17.60;;;5.20;;
15096;SDS011;7649;52.084;7.478;2023-05-27T00:28:29;17.87;;;5.73;;
15096;SDS011;7649;52.084;7.478;2023-05-27T00:30:57;11.07;;;4.43;;
15096;SDS011;7649;52.084;7.478;2023-05-27T00:33:26;10.17;;;4.50;;
15096;SDS011;7649;52.084;7.478;2023-05-27T00:35:54;15.57;;;5.03;;
15096;SDS011;7649;52.084;7.478;2023-05-27T00:38:22;12.93;;;4.93;;
15096;SDS011;7649;52.084;7.478;2023-05-27T00:40:52;11.80;;;4.80;;
15096;SDS011;7649;52.084;7.478;2023-05-27T00:43:21;9.43;;;4.93;;
15096;SDS011;7649;52.084;7.478;2023-05-27T00:45:49;10.80;;;4.37;;
15096;SDS011;7649;52.084;7.478;2023-05-27T00:48:18;14.57;;;4.60;;
15096;SDS011;7649;52.084;7.478;2023-05-27T00:50:46;16.80;;;5.33;;
15096;SDS011;7649;52.084;7.478;2023-05-27T00:53:15;11.77;;;5.07;;
15096;SDS011;7649;52.084;7.478;2023-05-27T00:55:43;18.60;;;4.90;;
15096;SDS011;7649;52.084;7.478;2023-05-27T00:58:13;11.90;;;4.80;;
15096;SDS011;7649;52.084;7.478;2023-05-27T01:00:41;12.67;;;5.10;;
15096;SDS011;7649;52.084;7.478;2023-05-27T01:03:09;13.23;;;4.70;;
15096;SDS011;7649;52.084;7.478;2023-05-27T01:05:38;12.23;;;4.50;;
15096;SDS011;7649;52.084;7.478;2023-05-27T01:08:09;12.17;;;4.70;;
15096;SDS011;7649;52.084;7.478;2023-05-27T01:10:40;12.93;;;4.80;;
15096;SDS011;7649;52.084;7.478;2023-05-27T01:13:11;12.50;;;4.60;;
15096;SDS011;7649;52.084;7.478;2023-05-27T01:15:42;11.90;;;4.47;;
15096;SDS011;7649;52.084;7.478;2023-05-27T01:18:11;11.37;;;4.67;;
15096;SDS011;7649;52.084;7.478;2023-05-27T01:20:43;13.73;;;4.60;;
15096;SDS011;7649;52.084;7.478;2023-05-27T01:23:13;12.83;;;4.30;;
15096;SDS011;7649;52.084;7.478;2023-05-27T01:25:41;11.80;;;4.70;;
15096;SDS011;7649;52.084;7.478;2023-05-27T01:28:10;12.97;;;5.10;;
15096;SDS011;7649;52.084;7.478;2023-05-27T01:30:38;11.20;;;4.97;;
15096;SDS011;7649;52.084;7.478;2023-05-27T01:33:07;9.50;;;4.37;;
15096;SDS011;7649;52.084;7.478;2023-05-27T01:35:38;12.47;;;4.43;;
15096;SDS011;7649;52.084;7.478;2023-05-27T01:38:09;12.57;;;4.93;;
15096;SDS011;7649;52.084;7.478;2023-05-27T01:40:39;11.50;;;4.77;;
15096;SDS011;7649;52.084;7.478;2023-05-27T01:43:08;14.90;;;5.23;;
15096;SDS011;7649;52.084;7.478;2023-05-27T01:45:37;11.83;;;5.17;;
15096;SDS011;7649;52.084;7.478;2023-05-27T01:48:05;16.77;;;5.23;;
15096;SDS011;7649;52.084;7.478;2023-05-27T01:50:35;12.63;;;5.10;;
15096;SDS011;7649;52.084;7.478;2023-05-27T01:53:04;14.00;;;4.87;;
15096;SDS011;7649;52.084;7.478;2023-05-27T01:55:32;12.97;;;4.90;;
15096;SDS011;7649;52.084;7.478;2023-05-27T01:58:02;11.57;;;4.80;;
15096;SDS011;7649;52.084;7.478;2023-05-27T02:00:30;12.43;;;4.83;;
15096;SDS011;7649;52.084;7.478;2023-05-27T02:02:58;13.60;;;5.40;;
15096;SDS011;7649;52.084;7.478;2023-05-27T02:05:27;11.87;;;5.33;;
15096;SDS011;7649;52.084;7.478;2023-05-27T02:07:55;11.30;;;5.17;;
15096;SDS011;7649;52.084;7.478;2023-05-27T02:10:23;13.23;;;5.07;;
15096;SDS011;7649;52.084;7.478;2023-05-27T02:12:51;13.40;;;5.20;;
15096;SDS011;7649;52.084;7.478;2023-05-27T02:15:21;13.97;;;5.37;;
15096;SDS011;7649;52.084;7.478;2023-05-27T02:17:49;16.30;;;5.50;;
15096;SDS011;7649;52.084;7.478;2023-05-27T02:20:21;17.00;;;5.30;;
15096;SDS011;7649;52.084;7.478;2023-05-27T02:22:50;11.33;;;5.30;;
15096;SDS011;7649;52.084;7.478;2023-05-27T02:25:18;11.27;;;4.97;;
15096;SDS011;7649;52.084;7.478;2023-05-27T02:27:46;13.50;;;5.83;;
15096;SDS011;7649;52.084;7.478;2023-05-27T02:30:16;14.87;;;5.73;;
15096;SDS011;7649;52.084;7.478;2023-05-27T02:32:47;14.90;;;5.27;;
15096;SDS011;7649;52.084;7.478;2023-05-27T02:35:15;13.53;;;5.30;;
15096;SDS011;7649;52.084;7.478;2023-05-27T02:37:43;14.60;;;5.53;;
15096;SDS011;7649;52.084;7.478;2023-05-27T02:40:12;12.07;;;5.17;;
15096;SDS011;7649;52.084;7.478;2023-05-27T02:42:50;16.00;;;5.93;;
15096;SDS011;7649;52.084;7.478;2023-05-27T02:45:19;17.60;;;5.87;;
15096;SDS011;7649;52.084;7.478;2023-05-27T02:47:48;10.27;;;5.20;;
15096;SDS011;7649;52.084;7.478;2023-05-27T02:50:17;14.10;;;5.50;;
15096;SDS011;7649;52.084;7.478;2023-05-27T02:52:45;12.80;;;5.50;;
15096;SDS011;7649;52.084;7.478;2023-05-27T02:55:14;14.07;;;5.40;;
15096;SDS011;7649;52.084;7.478;2023-05-27T02:57:42;13.03;;;5.10;;
15096;SDS011;7649;52.084;7.478;2023-05-27T03:00:10;11.93;;;4.80;;
15096;SDS011;7649;52.084;7.478;2023-05-27T03:02:39;12.23;;;5.80;;
15096;SDS011;7649;52.084;7.478;2023-05-27T03:05:09;12.37;;;5.43;;
15096;SDS011;7649;52.084;7.478;2023-05-27T03:07:38;10.83;;;5.50;;
15096;SDS011;7649;52.084;7.478;2023-05-27T03:10:07;11.50;;;5.73;;
15096;SDS011;7649;52.084;7.478;2023-05-27T03:12:36;12.33;;;5.50;;
15096;SDS011;7649;52.084;7.478;2023-05-27T03:15:04;12.70;;;5.30;;
15096;SDS011;7649;52.084;7.478;2023-05-27T03:17:35;13.43;;;5.90;;
15096;SDS011;7649;52.084;7.478;2023-05-27T03:20:04;12.53;;;5.60;;
15096;SDS011;7649;52.084;7.478;2023-05-27T03:22:36;11.43;;;5.63;;
15096;SDS011;7649;52.084;7.478;2023-05-27T03:25:04;15.60;;;6.33;;
15096;SDS011;7649;52.084;7.478;2023-05-27T03:27:34;12.83;;;5.70;;
15096;SDS011;7649;52.084;7.478;2023-05-27T03:30:02;11.20;;;5.60;;
15096;SDS011;7649;52.084;7.478;2023-05-27T03:32:31;13.17;;;5.73;;
15096;SDS011;7649;52.084;7.478;2023-05-27T03:34:59;13.97;;;5.63;;
15096;SDS011;7649;52.084;7.478;2023-05-27T03:37:28;13.13;;;5.93;;
15096;SDS011;7649;52.084;7.478;2023-05-27T03:39:57;17.77;;;6.60;;
15096;SDS011;7649;52.084;7.478;2023-05-27T03:42:26;15.33;;;6.73;;
15096;SDS011;7649;52.084;7.478;2023-05-27T03:44:54;18.50;;;6.27;;
15096;SDS011;7649;52.084;7.478;2023-05-27T03:47:22;17.17;;;6.63;;
15096;SDS011;7649;52.084;7.478;2023-05-27T03:49:50;17.07;;;6.27;;
15096;SDS011;7649;52.084;7.478;2023-05-27T03:52:19;13.87;;;6.03;;
15096;SDS011;7649;52.084;7.478;2023-05-27T03:54:47;14.03;;;5.83;;
15096;SDS011;7649;52.084;7.478;2023-05-27T03:57:17;16.63;;;5.90;;
15096;SDS011;7649;52.084;7.478;2023-05-27T03:59:45;14.07;;;5.97;;
15096;SDS011;7649;52.084;7.478;2023-05-27T04:02:13;17.43;;;6.97;;
15096;SDS011;7649;52.084;7.478;2023-05-27T04:04:42;14.80;;;6.00;;
15096;SDS011;7649;52.084;7.478;2023-05-27T04:07:10;11.90;;;5.73;;
15096;SDS011;7649;52.084;7.478;2023-05-27T04:09:39;15.17;;;6.83;;
15096;SDS011;7649;52.084;7.478;2023-05-27T04:12:08;14.87;;;6.43;;
15096;SDS011;7649;52.084;7.478;2023-05-27T04:14:37;17.07;;;6.67;;
15096;SDS011;7649;52.084;7.478;2023-05-27T04:17:06;17.30;;;6.33;;
15096;SDS011;7649;52.084;7.478;2023-05-27T04:19:34;13.23;;;5.77;;
15096;SDS011;7649;52.084;7.478;2023-05-27T04:22:02;15.97;;;7.03;;
15096;SDS011;7649;52.084;7.478;2023-05-27T04:24:31;15.20;;;6.10;;
15096;SDS011;7649;52.084;7.478;2023-05-27T04:26:59;12.90;;;5.77;;
15096;SDS011;7649;52.084;7.478;2023-05-27T04:29:28;14.80;;;6.10;;
15096;SDS011;7649;52.084;7.478;2023-05-27T04:31:59;14.40;;;5.63;;
15096;SDS011;7649;52.084;7.478;2023-05-27T04:34:27;13.27;;;6.10;;
15096;SDS011;7649;52.084;7.478;2023-05-27T04:36:56;16.00;;;6.07;;
15096;SDS011;7649;52.084;7.478;2023-05-27T04:39:24;17.03;;;6.20;;
15096;SDS011;7649;52.084;7.478;2023-05-27T04:41:52;17.47;;;6.23;;
15096;SDS011;7649;52.084;7.478;2023-05-27T04:44:23;18.40;;;6.00;;
15096;SDS011;7649;52.084;7.478;2023-05-27T04:46:53;16.70;;;5.73;;
15096;SDS011;7649;52.084;7.478;2023-05-27T04:49:23;11.27;;;4.83;;
15096;SDS011;7649;52.084;7.478;2023-05-27T04:51:51;16.30;;;6.30;;
15096;SDS011;7649;52.084;7.478;2023-05-27T04:54:21;13.90;;;5.87;;
15096;SDS011;7649;52.084;7.478;2023-05-27T04:56:49;16.90;;;5.83;;
15096;SDS011;7649;52.084;7.478;2023-05-27T04:59:18;14.90;;;4.97;;
15096;SDS011;7649;52.084;7.478;2023-05-27T05:01:48;12.67;;;5.53;;
15096;SDS011;7649;52.084;7.478;2023-05-27T05:04:37;14.97;;;5.93;;
15096;SDS011;7649;52.084;7.478;2023-05-27T05:07:05;16.10;;;5.63;;
15096;SDS011;7649;52.084;7.478;2023-05-27T05:09:34;17.20;;;6.07;;
15096;SDS011;7649;52.084;7.478;2023-05-27T05:12:02;14.23;;;5.63;;
15096;SDS011;7649;52.084;7.478;2023-05-27T05:14:31;13.87;;;5.53;;
15096;SDS011;7649;52.084;7.478;2023-05-27T05:16:59;16.07;;;5.73;;
15096;SDS011;7649;52.084;7.478;2023-05-27T05:19:27;16.97;;;6.03;;
15096;SDS011;7649;52.084;7.478;2023-05-27T05:21:57;13.40;;;6.07;;
15096;SDS011;7649;52.084;7.478;2023-05-27T05:24:25;14.20;;;6.07;;
15096;SDS011;7649;52.084;7.478;2023-05-27T05:26:54;12.83;;;5.20;;
15096;SDS011;7649;52.084;7.478;2023-05-27T05:29:22;11.63;;;5.40;;
15096;SDS011;7649;52.084;7.478;2023-05-27T05:31:50;14.53;;;5.40;;
15096;SDS011;7649;52.084;7.478;2023-05-27T05:34:19;14.33;;;5.67;;
15096;SDS011;7649;52.084;7.478;2023-05-27T05:36:47;15.13;;;5.80;;
15096;SDS011;7649;52.084;7.478;2023-05-27T05:39:17;17.37;;;6.07;;
15096;SDS011;7649;52.084;7.478;2023-05-27T05:41:46;15.23;;;5.97;;
15096;SDS011;7649;52.084;7.478;2023-05-27T05:44:14;12.63;;;5.50;;
15096;SDS011;7649;52.084;7.478;2023-05-27T05:46:43;17.37;;;5.77;;
15096;SDS011;7649;52.084;7.478;2023-05-27T05:49:11;11.13;;;5.20;;
15096;SDS011;7649;52.084;7.478;2023-05-27T05:51:40;13.33;;;4.73;;
15096;SDS011;7649;52.084;7.478;2023-05-27T05:54:08;20.13;;;6.40;;
15096;SDS011;7649;52.084;7.478;2023-05-27T05:56:38;13.10;;;6.40;;
15096;SDS011;7649;52.084;7.478;2023-05-27T05:59:06;15.03;;;5.57;;
15096;SDS011;7649;52.084;7.478;2023-05-27T06:01:34;17.27;;;6.00;;
15096;SDS011;7649;52.084;7.478;2023-05-27T06:04:03;15.57;;;5.53;;
15096;SDS011;7649;52.084;7.478;2023-05-27T06:06:32;15.47;;;5.60;;
15096;SDS011;7649;52.084;7.478;2023-05-27T06:09:01;16.70;;;5.30;;
15096;SDS011;7649;52.084;7.478;2023-05-27T06:11:29;12.70;;;5.43;;
15096;SDS011;7649;52.084;7.478;2023-05-27T06:13:59;18.90;;;5.77;;
15096;SDS011;7649;52.084;7.478;2023-05-27T06:16:27;17.03;;;5.50;;
15096;SDS011;7649;52.084;7.478;2023-05-27T06:18:56;15.47;;;5.77;;
15096;SDS011;7649;52.084;7.478;2023-05-27T06:21:24;14.60;;;5.73;;
15096;SDS011;7649;52.084;7.478;2023-05-27T06:23:52;17.90;;;5.60;;
15096;SDS011;7649;52.084;7.478;2023-05-27T06:26:20;16.10;;;5.30;;
15096;SDS011;7649;52.084;7.478;2023-05-27T06:28:49;18.53;;;5.50;;
15096;SDS011;7649;52.084;7.478;2023-05-27T06:31:18;16.83;;;6.00;;
15096;SDS011;7649;52.084;7.478;2023-05-27T06:33:47;16.00;;;5.47;;
15096;SDS011;7649;52.084;7.478;2023-05-27T06:36:15;13.27;;;5.47;;
15096;SDS011;7649;52.084;7.478;2023-05-27T06:38:45;19.87;;;5.77;;
15096;SDS011;7649;52.084;7.478;2023-05-27T06:41:13;13.60;;;5.37;;
15096;SDS011;7649;52.084;7.478;2023-05-27T06:43:41;17.87;;;6.37;;
15096;SDS011;7649;52.084;7.478;2023-05-27T06:46:10;11.70;;;5.47;;
15096;SDS011;7649;52.084;7.478;2023-05-27T06:48:39;18.23;;;5.83;;
15096;SDS011;7649;52.084;7.478;2023-05-27T06:51:08;16.37;;;5.93;;
15096;SDS011;7649;52.084;7.478;2023-05-27T06:53:36;12.97;;;6.10;;
15096;SDS011;7649;52.084;7.478;2023-05-27T06:56:05;12.67;;;5.80;;
15096;SDS011;7649;52.084;7.478;2023-05-27T06:58:33;12.77;;;5.67;;
15096;SDS011;7649;52.084;7.478;2023-05-27T07:01:01;17.43;;;5.80;;
15096;SDS011;7649;52.084;7.478;2023-05-27T07:03:30;15.70;;;5.83;;
15096;SDS011;7649;52.084;7.478;2023-05-27T07:05:59;13.40;;;5.50;;
15096;SDS011;7649;52.084;7.478;2023-05-27T07:08:28;14.43;;;5.83;;
15096;SDS011;7649;52.084;7.478;2023-05-27T07:10:56;13.37;;;5.77;;
15096;SDS011;7649;52.084;7.478;2023-05-27T07:13:24;19.00;;;6.73;;
15096;SDS011;7649;52.084;7.478;2023-05-27T07:15:53;19.10;;;6.20;;
15096;SDS011;7649;52.084;7.478;2023-05-27T07:18:21;16.07;;;5.93;;
15096;SDS011;7649;52.084;7.478;2023-05-27T07:20:49;18.27;;;6.27;;
15096;SDS011;7649;52.084;7.478;2023-05-27T07:23:20;15.23;;;6.77;;
15096;SDS011;7649;52.084;7.478;2023-05-27T07:25:48;12.67;;;5.57;;
15096;SDS011;7649;52.084;7.478;2023-05-27T07:28:18;15.60;;;5.80;;
15096;SDS011;7649;52.084;7.478;2023-05-27T07:30:46;13.80;;;5.97;;
15096;SDS011;7649;52.084;7.478;2023-05-27T07:33:15;18.33;;;6.10;;
15096;SDS011;7649;52.084;7.478;2023-05-27T07:35:43;14.63;;;5.93;;
15096;SDS011;7649;52.084;7.478;2023-05-27T07:38:12;13.77;;;6.17;;
15096;SDS011;7649;52.084;7.478;2023-05-27T07:40:41;16.00;;;6.30;;
15096;SDS011;7649;52.084;7.478;2023-05-27T07:43:10;13.10;;;5.50;;
15096;SDS011;7649;52.084;7.478;2023-05-27T07:45:38;15.80;;;5.30;;
15096;SDS011;7649;52.084;7.478;2023-05-27T07:48:06;15.10;;;6.03;;
15096;SDS011;7649;52.084;7.478;2023-05-27T07:50:35;17.37;;;6.17;;
15096;SDS011;7649;52.084;7.478;2023-05-27T07:53:03;11.70;;;5.57;;
15096;SDS011;7649;52.084;7.478;2023-05-27T07:55:32;14.27;;;5.90;;
15096;SDS011;7649;52.084;7.478;2023-05-27T07:58:01;12.97;;;6.07;;
15096;SDS011;7649;52.084;7.478;2023-05-27T08:00:30;13.20;;;5.13;;
15096;SDS011;7649;52.084;7.478;2023-05-27T08:02:58;16.87;;;6.20;;
15096;SDS011;7649;52.084;7.478;2023-05-27T08:05:27;11.60;;;5.23;;
15096;SDS011;7649;52.084;7.478;2023-05-27T08:07:55;14.10;;;5.37;;
15096;SDS011;7649;52.084;7.478;2023-05-27T08:10:24;15.50;;;5.68;;
15096;SDS011;7649;52.084;7.478;2023-05-27T08:12:52;16.73;;;6.32;;
15096;SDS011;7649;52.084;7.478;2023-05-27T08:15:22;13.68;;;5.90;;
15096;SDS011;7649;52.084;7.478;2023-05-27T08:17:50;13.23;;;5.45;;
15096;SDS011;7649;52.084;7.478;2023-05-27T08:20:19;18.50;;;6.43;;
15096;SDS011;7649;52.084;7.478;2023-05-27T08:22:47;12.82;;;5.43;;
15096;SDS011;7649;52.084;7.478;2023-05-27T08:25:16;10.85;;;5.43;;
15096;SDS011;7649;52.084;7.478;2023-05-27T08:27:44;12.88;;;5.43;;
15096;SDS011;7649;52.084;7.478;2023-05-27T08:30:13;12.02;;;5.53;;
15096;SDS011;7649;52.084;7.478;2023-05-27T08:32:43;10.75;;;5.45;;
15096;SDS011;7649;52.084;7.478;2023-05-27T08:35:13;9.95;;;5.05;;
15096;SDS011;7649;52.084;7.478;2023-05-27T08:37:43;13.73;;;5.53;;
15096;SDS011;7649;52.084;7.478;2023-05-27T08:40:13;11.88;;;5.72;;
15096;SDS011;7649;52.084;7.478;2023-05-27T08:42:41;12.32;;;5.28;;
15096;SDS011;7649;52.084;7.478;2023-05-27T08:45:10;14.52;;;5.32;;
15096;SDS011;7649;52.084;7.478;2023-05-27T08:47:39;12.98;;;5.15;;
15096;SDS011;7649;52.084;7.478;2023-05-27T08:50:09;12.15;;;5.65;;
15096;SDS011;7649;52.084;7.478;2023-05-27T08:52:38;13.23;;;5.50;;
15096;SDS011;7649;52.084;7.478;2023-05-27T08:55:09;11.93;;;5.32;;
15096;SDS011;7649;52.084;7.478;2023-05-27T08:57:39;17.08;;;5.65;;
15096;SDS011;7649;52.084;7.478;2023-05-27T09:00:09;11.50;;;5.38;;
15096;SDS011;7649;52.084;7.478;2023-05-27T09:02:40;17.45;;;5.95;;
15096;SDS011;7649;52.084;7.478;2023-05-27T09:05:10;12.25;;;5.80;;
15096;SDS011;7649;52.084;7.478;2023-05-27T09:07:38;12.75;;;5.60;;
15096;SDS011;7649;52.084;7.478;2023-05-27T09:10:07;13.20;;;5.30;;
15096;SDS011;7649;52.084;7.478;2023-05-27T09:12:35;13.52;;;5.50;;
15096;SDS011;7649;52.084;7.478;2023-05-27T09:15:04;12.25;;;5.30;;
15096;SDS011;7649;52.084;7.478;2023-05-27T09:17:33;12.02;;;5.03;;
15096;SDS011;7649;52.084;7.478;2023-05-27T09:20:02;12.40;;;5.07;;
15096;SDS011;7649;52.084;7.478;2023-05-27T09:22:34;19.90;;;5.72;;
15096;SDS011;7649;52.084;7.478;2023-05-27T09:25:03;10.95;;;5.32;;
15096;SDS011;7649;52.084;7.478;2023-05-27T09:27:31;12.25;;;5.00;;
15096;SDS011;7649;52.084;7.478;2023-05-27T09:30:12;11.90;;;4.70;;
15096;SDS011;7649;52.084;7.478;2023-05-27T09:33:00;14.80;;;5.35;;
15096;SDS011;7649;52.084;7.478;2023-05-27T09:35:29;9.60;;;5.07;;
15096;SDS011;7649;52.084;7.478;2023-05-27T09:38:06;14.68;;;5.32;;
15096;SDS011;7649;52.084;7.478;2023-05-27T09:40:35;15.18;;;5.65;;
15096;SDS011;7649;52.084;7.478;2023-05-27T09:43:04;13.25;;;5.63;;
15096;SDS011;7649;52.084;7.478;2023-05-27T09:45:33;17.20;;;5.25;;
15096;SDS011;7649;52.084;7.478;2023-05-27T09:48:01;11.43;;;4.95;;
15096;SDS011;7649;52.084;7.478;2023-05-27T09:50:31;9.27;;;4.82;;
15096;SDS011;7649;52.084;7.478;2023-05-27T09:52:59;11.07;;;4.90;;
15096;SDS011;7649;52.084;7.478;2023-05-27T09:55:37;12.75;;;4.85;;
15096;SDS011;7649;52.084;7.478;2023-05-27T09:58:06;13.63;;;5.03;;
15096;SDS011;7649;52.084;7.478;2023-05-27T10:00:34;11.95;;;5.00;;
15096;SDS011;7649;52.084;7.478;2023-05-27T10:03:03;15.77;;;5.88;;
15096;SDS011;7649;52.084;7.478;2023-05-27T10:05:32;8.85;;;4.75;;
15096;SDS011;7649;52.084;7.478;2023-05-27T10:08:01;11.32;;;5.00;;
15096;SDS011;7649;52.084;7.478;2023-05-27T10:10:32;13.75;;;5.50;;
15096;SDS011;7649;52.084;7.478;2023-05-27T10:13:02;14.05;;;5.35;;
15096;SDS011;7649;52.084;7.478;2023-05-27T10:15:31;14.57;;;5.47;;
15096;SDS011;7649;52.084;7.478;2023-05-27T10:18:01;15.13;;;5.32;;
15096;SDS011;7649;52.084;7.478;2023-05-27T10:20:30;12.50;;;5.20;;
15096;SDS011;7649;52.084;7.478;2023-05-27T10:23:08;13.40;;;5.97;;
15096;SDS011;7649;52.084;7.478;2023-05-27T10:25:37;12.23;;;5.57;;
15096;SDS011;7649;52.084;7.478;2023-05-27T10:28:07;11.63;;;5.22;;
15096;SDS011;7649;52.084;7.478;2023-05-27T10:30:44;13.27;;;5.03;;
15096;SDS011;7649;52.084;7.478;2023-05-27T10:33:13;12.98;;;5.63;;
15096;SDS011;7649;52.084;7.478;2023-05-27T10:35:42;11.02;;;4.95;;
15096;SDS011;7649;52.084;7.478;2023-05-27T10:38:15;12.15;;;5.32;;
15096;SDS011;7649;52.084;7.478;2023-05-27T10:40:44;12.43;;;5.60;;
15096;SDS011;7649;52.084;7.478;2023-05-27T10:43:17;10.75;;;5.43;;
15096;SDS011;7649;52.084;7.478;2023-05-27T10:45:46;11.55;;;5.22;;
15096;SDS011;7649;52.084;7.478;2023-05-27T10:48:15;12.48;;;5.63;;
15096;SDS011;7649;52.084;7.478;2023-05-27T10:50:50;12.02;;;5.05;;
15096;SDS011;7649;52.084;7.478;2023-05-27T10:53:19;9.40;;;5.05;;
15096;SDS011;7649;52.084;7.478;2023-05-27T10:55:47;11.85;;;5.63;;
15096;SDS011;7649;52.084;7.478;2023-05-27T10:58:18;11.13;;;4.72;;
15096;SDS011;7649;52.084;7.478;2023-05-27T11:00:47;13.48;;;5.05;;
15096;SDS011;7649;52.084;7.478;2023-05-27T11:03:17;12.35;;;5.20;;
15096;SDS011;7649;52.084;7.478;2023-05-27T11:05:55;13.35;;;5.18;;
15096;SDS011;7649;52.084;7.478;2023-05-27T11:08:25;12.40;;;4.65;;
15096;SDS011;7649;52.084;7.478;2023-05-27T11:10:57;10.07;;;4.75;;
15096;SDS011;7649;52.084;7.478;2023-05-27T11:13:33;11.75;;;4.72;;
15096;SDS011;7649;52.084;7.478;2023-05-27T11:16:02;10.88;;;5.50;;
15096;SDS011;7649;52.084;7.478;2023-05-27T11:18:37;17.35;;;5.80;;
15096;SDS011;7649;52.084;7.478;2023-05-27T11:21:05;9.55;;;4.68;;
15096;SDS011;7649;52.084;7.478;2023-05-27T11:23:35;10.25;;;4.90;;
15096;SDS011;7649;52.084;7.478;2023-05-27T11:26:03;13.48;;;4.80;;
15096;SDS011;7649;52.084;7.478;2023-05-27T11:28:33;9.25;;;4.93;;
15096;SDS011;7649;52.084;7.478;2023-05-27T11:31:02;10.13;;;4.97;;
15096;SDS011;7649;52.084;7.478;2023-05-27T11:33:30;10.90;;;4.88;;
15096;SDS011;7649;52.084;7.478;2023-05-27T11:36:03;11.25;;;5.38;;
15096;SDS011;7649;52.084;7.478;2023-05-27T11:38:38;13.50;;;4.95;;
15096;SDS011;7649;52.084;7.478;2023-05-27T11:41:06;13.63;;;5.55;;
15096;SDS011;7649;52.084;7.478;2023-05-27T11:43:36;9.02;;;5.05;;
15096;SDS011;7649;52.084;7.478;2023-05-27T11:46:04;11.98;;;5.50;;
15096;SDS011;7649;52.084;7.478;2023-05-27T11:48:33;9.27;;;4.97;;
15096;SDS011;7649;52.084;7.478;2023-05-27T11:51:01;8.52;;;4.47;;
15096;SDS011;7649;52.084;7.478;2023-05-27T11:53:29;9.52;;;4.90;;
15096;SDS011;7649;52.084;7.478;2023-05-27T11:55:58;12.23;;;4.95;;
15096;SDS011;7649;52.084;7.478;2023-05-27T11:58:26;9.98;;;4.55;;
15096;SDS011;7649;52.084;7.478;2023-05-27T12:00:55;11.75;;;5.50;;
15096;SDS011;7649;52.084;7.478;2023-05-27T12:03:24;13.80;;;8.57;;
15096;SDS011;7649;52.084;7.478;2023-05-27T12:05:52;8.35;;;5.03;;
15096;SDS011;7649;52.084;7.478;2023-05-27T12:08:21;16.10;;;5.38;;
15096;SDS011;7649;52.084;7.478;2023-05-27T12:10:50;16.20;;;5.68;;
15096;SDS011;7649;52.084;7.478;2023-05-27T12:13:20;10.82;;;5.32;;
15096;SDS011;7649;52.084;7.478;2023-05-27T12:15:49;13.02;;;5.60;;
15096;SDS011;7649;52.084;7.478;2023-05-27T12:18:19;10.90;;;5.32;;
15096;SDS011;7649;52.084;7.478;2023-05-27T12:20:47;9.18;;;4.68;;
15096;SDS011;7649;52.084;7.478;2023-05-27T12:23:16;10.07;;;5.20;;
15096;SDS011;7649;52.084;7.478;2023-05-27T12:25:44;10.38;;;5.10;;
15096;SDS011;7649;52.084;7.478;2023-05-27T12:28:12;9.73;;;4.95;;
15096;SDS011;7649;52.084;7.478;2023-05-27T12:30:41;14.77;;;5.13;;
15096;SDS011;7649;52.084;7.478;2023-05-27T12:33:10;15.00;;;5.72;;
15096;SDS011;7649;52.084;7.478;2023-05-27T12:35:41;10.57;;;4.53;;
15096;SDS011;7649;52.084;7.478;2023-05-27T12:38:09;12.15;;;4.78;;
15096;SDS011;7649;52.084;7.478;2023-05-27T12:40:37;10.07;;;4.78;;
15096;SDS011;7649;52.084;7.478;2023-05-27T12:43:06;11.00;;;4.93;;
15096;SDS011;7649;52.084;7.478;2023-05-27T12:45:34;8.15;;;4.47;;
15096;SDS011;7649;52.084;7.478;2023-05-27T12:48:02;8.27;;;3.95;;
15096;SDS011;7649;52.084;7.478;2023-05-27T12:50:31;9.02;;;4.55;;
15096;SDS011;7649;52.084;7.478;2023-05-27T12:53:02;6.82;;;3.65;;
15096;SDS011;7649;52.084;7.478;2023-05-27T12:55:30;9.95;;;4.57;;
15096;SDS011;7649;52.084;7.478;2023-05-27T12:57:59;13.60;;;8.30;;
15096;SDS011;7649;52.084;7.478;2023-05-27T13:00:27;9.82;;;4.25;;
15096;SDS011;7649;52.084;7.478;2023-05-27T13:02:57;7.65;;;3.90;;
15096;SDS011;7649;52.084;7.478;2023-05-27T13:05:25;8.65;;;4.63;;
15096;SDS011;7649;52.084;7.478;2023-05-27T13:07:54;9.52;;;4.47;;
15096;SDS011;7649;52.084;7.478;2023-05-27T13:10:25;7.18;;;4.15;;
15096;SDS011;7649;52.084;7.478;2023-05-27T13:12:53;7.78;;;4.32;;
15096;SDS011;7649;52.084;7.478;2023-05-27T13:15:22;7.80;;;3.83;;
15096;SDS011;7649;52.084;7.478;2023-05-27T13:17:53;7.35;;;3.72;;
15096;SDS011;7649;52.084;7.478;2023-05-27T13:20:22;9.77;;;4.55;;
15096;SDS011;7649;52.084;7.478;2023-05-27T13:22:51;8.80;;;4.35;;
15096;SDS011;7649;52.084;7.478;2023-05-27T13:25:20;8.75;;;4.47;;
15096;SDS011;7649;52.084;7.478;2023-05-27T13:27:49;9.00;;;4.60;;
15096;SDS011;7649;52.084;7.478;2023-05-27T13:30:20;12.13;;;4.03;;
15096;SDS011;7649;52.084;7.478;2023-05-27T13:32:48;7.78;;;4.28;;
15096;SDS011;7649;52.084;7.478;2023-05-27T13:35:17;9.20;;;4.55;;
15096;SDS011;7649;52.084;7.478;2023-05-27T13:37:45;10.02;;;5.10;;
15096;SDS011;7649;52.084;7.478;2023-05-27T13:40:13;8.43;;;4.18;;
15096;SDS011;7649;52.084;7.478;2023-05-27T13:42:42;9.30;;;4.50;;
15096;SDS011;7649;52.084;7.478;2023-05-27T13:45:12;10.10;;;4.75;;
15096;SDS011;7649;52.084;7.478;2023-05-27T13:47:40;9.57;;;4.97;;
15096;SDS011;7649;52.084;7.478;2023-05-27T13:50:10;8.15;;;4.68;;
15096;SDS011;7649;52.084;7.478;2023-05-27T13:52:39;8.95;;;4.88;;
15096;SDS011;7649;52.084;7.478;2023-05-27T13:55:07;8.38;;;4.60;;
15096;SDS011;7649;52.084;7.478;2023-05-27T13:57:36;10.02;;;4.57;;
15096;SDS011;7649;52.084;7.478;2023-05-27T14:00:04;7.50;;;4.65;;
15096;SDS011;7649;52.084;7.478;2023-05-27T14:02:34;8.90;;;4.68;;
15096;SDS011;7649;52.084;7.478;2023-05-27T14:05:03;9.68;;;4.50;;
15096;SDS011;7649;52.084;7.478;2023-05-27T14:07:33;9.52;;;4.43;;
15096;SDS011;7649;52.084;7.478;2023-05-27T14:10:07;7.35;;;4.30;;
15096;SDS011;7649;52.084;7.478;2023-05-27T14:12:36;8.77;;;4.13;;
15096;SDS011;7649;52.084;7.478;2023-05-27T14:15:04;9.35;;;4.05;;
15096;SDS011;7649;52.084;7.478;2023-05-27T14:17:34;10.00;;;4.47;;
15096;SDS011;7649;52.084;7.478;2023-05-27T14:20:03;8.25;;;5.25;;
15096;SDS011;7649;52.084;7.478;2023-05-27T14:22:39;8.77;;;4.30;;
15096;SDS011;7649;52.084;7.478;2023-05-27T14:25:08;7.93;;;4.43;;
15096;SDS011;7649;52.084;7.478;2023-05-27T14:27:37;7.93;;;4.03;;
15096;SDS011;7649;52.084;7.478;2023-05-27T14:30:05;7.60;;;4.20;;
15096;SDS011;7649;52.084;7.478;2023-05-27T14:32:35;7.97;;;3.80;;
15096;SDS011;7649;52.084;7.478;2023-05-27T14:35:04;7.82;;;3.85;;
15096;SDS011;7649;52.084;7.478;2023-05-27T14:37:32;5.50;;;3.70;;
15096;SDS011;7649;52.084;7.478;2023-05-27T14:40:00;6.20;;;3.65;;
15096;SDS011;7649;52.084;7.478;2023-05-27T14:42:29;5.47;;;3.30;;
15096;SDS011;7649;52.084;7.478;2023-05-27T14:44:57;5.70;;;3.47;;
15096;SDS011;7649;52.084;7.478;2023-05-27T14:47:25;6.65;;;3.75;;
15096;SDS011;7649;52.084;7.478;2023-05-27T14:49:55;6.40;;;3.78;;
15096;SDS011;7649;52.084;7.478;2023-05-27T14:52:23;7.18;;;4.13;;
15096;SDS011;7649;52.084;7.478;2023-05-27T14:54:52;7.03;;;4.07;;
15096;SDS011;7649;52.084;7.478;2023-05-27T14:57:20;6.40;;;3.38;;
15096;SDS011;7649;52.084;7.478;2023-05-27T14:59:48;6.25;;;3.53;;
15096;SDS011;7649;52.084;7.478;2023-05-27T15:02:16;8.63;;;3.75;;